createdAt,value
2023-10-10T00:00:50.522Z,100.00
2023-10-10T00:03:19.496Z,100.00
2023-10-10T00:05:46.306Z,100.00
2023-10-10T00:08:13.103Z,100.00
2023-10-10T00:10:52.465Z,100.00
2023-10-10T00:13:21.066Z,100.00
2023-10-10T00:16:06.473Z,100.00
2023-10-10T00:18:34.063Z,100.00
2023-10-10T00:21:10.539Z,100.00
2023-10-10T00:23:48.638Z,100.00
2023-10-10T00:26:24.708Z,100.00
2023-10-10T00:28:58.934Z,100.00
2023-10-10T00:31:29.902Z,100.00
2023-10-10T00:33:57.189Z,100.00
2023-10-10T00:36:34.756Z,100.00
2023-10-10T00:39:13.844Z,100.00
2023-10-10T00:41:50.398Z,100.00
2023-10-10T00:44:18.931Z,100.00
2023-10-10T00:46:57.261Z,100.00
2023-10-10T00:49:32.408Z,100.00
2023-10-10T00:52:07.975Z,100.00
2023-10-10T00:54:44.345Z,100.00
2023-10-10T00:57:20.922Z,100.00
2023-10-10T00:59:49.684Z,100.00
2023-10-10T01:02:22.175Z,100.00
2023-10-10T01:04:55.507Z,100.00
2023-10-10T01:07:24.159Z,100.00
2023-10-10T01:10:08.986Z,100.00
2023-10-10T01:12:40.403Z,100.00
2023-10-10T01:15:16.403Z,100.00
2023-10-10T01:17:46.149Z,100.00
2023-10-10T01:20:19.576Z,100.00
2023-10-10T01:22:49.370Z,100.00
2023-10-10T01:25:36.223Z,100.00
2023-10-10T01:28:24.720Z,100.00
2023-10-10T01:31:00.452Z,100.00
2023-10-10T01:33:38.481Z,100.00
2023-10-10T01:36:22.316Z,100.00
2023-10-10T01:39:00.412Z,100.00
2023-10-10T01:41:33.375Z,100.00
2023-10-10T01:44:19.165Z,100.00
2023-10-10T01:46:46.779Z,100.00
2023-10-10T01:49:31.565Z,100.00
2023-10-10T01:52:00.706Z,100.00
2023-10-10T01:54:41.303Z,100.00
2023-10-10T01:57:10.953Z,100.00
2023-10-10T01:59:39.637Z,100.00
2023-10-10T02:02:10.850Z,100.00
2023-10-10T02:04:37.886Z,100.00
2023-10-10T02:07:07.111Z,100.00
2023-10-10T02:09:41.244Z,100.00
2023-10-10T02:12:17.166Z,100.00
2023-10-10T02:14:44.406Z,100.00
2023-10-10T02:17:27.604Z,100.00
2023-10-10T02:19:58.983Z,100.00
2023-10-10T02:22:45.327Z,100.00
2023-10-10T02:25:38.119Z,100.00
2023-10-10T02:28:21.295Z,100.00
2023-10-10T02:30:53.356Z,100.00
2023-10-10T02:33:20.437Z,100.00
2023-10-10T02:35:58.466Z,100.00
2023-10-10T02:38:40.624Z,100.00
2023-10-10T02:41:22.532Z,100.00
2023-10-10T02:43:58.272Z,100.00
2023-10-10T02:46:37.034Z,100.00
2023-10-10T02:49:13.970Z,100.00
2023-10-10T02:51:45.060Z,100.00
2023-10-10T02:54:28.021Z,100.00
2023-10-10T02:57:26.504Z,100.00
2023-10-10T03:00:01.258Z,100.00
2023-10-10T03:02:41.840Z,100.00
2023-10-10T03:05:16.481Z,100.00
2023-10-10T03:07:52.195Z,100.00
2023-10-10T03:10:40.382Z,100.00
2023-10-10T03:13:34.616Z,100.00
2023-10-10T03:16:16.346Z,100.00
2023-10-10T03:18:55.453Z,100.00
2023-10-10T03:21:37.319Z,100.00
2023-10-10T03:24:23.023Z,100.00
2023-10-10T03:27:01.430Z,100.00
2023-10-10T03:29:48.257Z,100.00
2023-10-10T03:32:22.006Z,100.00
2023-10-10T03:35:04.913Z,100.00
2023-10-10T03:37:41.811Z,100.00
2023-10-10T03:40:28.433Z,100.00
2023-10-10T03:43:14.790Z,100.00
2023-10-10T03:46:01.296Z,100.00
2023-10-10T03:48:46.711Z,100.00
2023-10-10T03:51:32.143Z,100.00
2023-10-10T03:54:17.564Z,100.00
2023-10-10T03:57:02.859Z,100.00
2023-10-10T03:59:48.281Z,100.00
2023-10-10T04:02:50.364Z,100.00
2023-10-10T04:05:35.877Z,100.00
2023-10-10T04:08:21.589Z,100.00
2023-10-10T04:11:07.061Z,100.00
2023-10-10T04:13:52.340Z,100.00
2023-10-10T04:16:37.778Z,100.00
2023-10-10T04:19:23.077Z,100.00
2023-10-10T04:22:08.060Z,100.00
2023-10-10T04:24:53.402Z,100.00
2023-10-10T04:27:38.670Z,100.00
2023-10-10T04:30:24.486Z,100.00
2023-10-10T04:33:09.743Z,100.00
2023-10-10T04:35:55.037Z,100.00
2023-10-10T04:38:40.374Z,100.00
2023-10-10T04:41:32.112Z,100.00
2023-10-10T04:44:18.814Z,100.00
2023-10-10T04:47:04.701Z,100.00
2023-10-10T04:49:50.043Z,100.00
2023-10-10T04:52:35.334Z,100.00
2023-10-10T04:55:20.594Z,100.00
2023-10-10T04:58:06.032Z,100.00
2023-10-10T05:00:51.467Z,100.00
2023-10-10T05:03:36.748Z,100.00
2023-10-10T05:06:22.127Z,100.00
2023-10-10T05:09:07.336Z,100.00
2023-10-10T05:11:52.872Z,100.00
2023-10-10T05:14:38.276Z,100.00
2023-10-10T05:17:23.638Z,100.00
2023-10-10T05:20:09.105Z,100.00
2023-10-10T05:22:54.476Z,100.00
2023-10-10T05:25:24.533Z,100.00
2023-10-10T05:27:54.438Z,100.00
2023-10-10T05:30:24.873Z,100.00
2023-10-10T05:33:02.643Z,100.00
2023-10-10T05:35:48.845Z,100.00
2023-10-10T05:38:17.157Z,100.00
2023-10-10T05:40:44.643Z,100.00
2023-10-10T05:43:16.713Z,100.00
2023-10-10T05:45:45.114Z,100.00
2023-10-10T05:48:15.857Z,100.00
2023-10-10T05:50:43.783Z,100.00
2023-10-10T05:53:10.880Z,100.00
2023-10-10T05:55:38.747Z,100.00
2023-10-10T05:58:06.273Z,100.00
2023-10-10T06:00:40.726Z,100.00
2023-10-10T06:03:07.655Z,100.00
2023-10-10T06:05:35.385Z,100.00
2023-10-10T06:08:07.498Z,100.00
2023-10-10T06:10:34.684Z,100.00
2023-10-10T06:13:12.686Z,100.00
2023-10-10T06:15:40.276Z,100.00
2023-10-10T06:18:13.529Z,100.00
2023-10-10T06:20:58.571Z,100.00
2023-10-10T06:23:34.251Z,100.00
2023-10-10T06:26:01.313Z,100.00
2023-10-10T06:28:28.725Z,100.00
2023-10-10T06:30:55.879Z,100.00
2023-10-10T06:33:29.952Z,100.00
2023-10-10T06:36:08.377Z,100.00
2023-10-10T06:38:35.532Z,100.00
2023-10-10T06:41:12.298Z,100.00
2023-10-10T06:43:40.964Z,100.00
2023-10-10T06:46:18.198Z,100.00
2023-10-10T06:48:48.555Z,100.00
2023-10-10T06:51:16.929Z,100.00
2023-10-10T06:53:46.318Z,100.00
2023-10-10T06:56:38.631Z,100.00
2023-10-10T06:59:05.412Z,100.00
2023-10-10T07:01:32.227Z,100.00
2023-10-10T07:04:04.741Z,100.00
2023-10-10T07:06:31.570Z,100.00
2023-10-10T07:09:16.500Z,100.00
2023-10-10T07:11:43.810Z,100.00
2023-10-10T07:14:17.388Z,100.00
2023-10-10T07:16:44.714Z,100.00
2023-10-10T07:19:21.179Z,100.00
2023-10-10T07:21:49.116Z,100.00
2023-10-10T07:24:16.848Z,100.00
2023-10-10T07:26:45.373Z,100.00
2023-10-10T07:29:42.787Z,100.00
2023-10-10T07:32:18.565Z,100.00
2023-10-10T07:34:52.400Z,100.00
2023-10-10T07:37:20.070Z,100.00
2023-10-10T07:40:05.623Z,100.00
2023-10-10T07:42:32.457Z,100.00
2023-10-10T07:44:59.651Z,100.00
2023-10-10T07:47:28.625Z,100.00
2023-10-10T07:50:00.881Z,100.00
2023-10-10T07:52:27.849Z,100.00
2023-10-10T07:55:05.263Z,100.00
2023-10-10T07:57:51.916Z,100.00
2023-10-10T08:00:18.971Z,100.00
2023-10-10T08:02:51.195Z,100.00
2023-10-10T08:05:21.194Z,100.00
2023-10-10T08:07:48.778Z,100.00
2023-10-10T08:10:31.319Z,100.00
2023-10-10T08:12:58.945Z,100.00
2023-10-10T08:15:28.507Z,100.00
2023-10-10T08:17:56.752Z,100.00
2023-10-10T08:20:37.686Z,100.00
2023-10-10T08:23:05.398Z,100.00
2023-10-10T08:25:33.317Z,100.00
2023-10-10T08:28:01.137Z,100.00
2023-10-10T08:30:28.410Z,100.00
2023-10-10T08:32:59.442Z,100.00
2023-10-10T08:35:31.396Z,100.00
2023-10-10T08:37:58.839Z,100.00
2023-10-10T08:40:35.219Z,100.00
2023-10-10T08:43:04.500Z,100.00
2023-10-10T08:45:41.462Z,100.00
2023-10-10T08:48:13.758Z,99.62
2023-10-10T08:50:42.116Z,98.95
2023-10-10T08:53:13.750Z,98.99
2023-10-10T08:55:41.928Z,97.48
2023-10-10T08:58:09.065Z,96.07
2023-10-10T09:00:37.043Z,96.61
2023-10-10T09:03:04.766Z,95.14
2023-10-10T09:05:33.212Z,93.35
2023-10-10T09:08:18.160Z,93.44
2023-10-10T09:10:47.294Z,92.91
2023-10-10T09:13:14.952Z,92.25
2023-10-10T09:15:55.496Z,92.41
2023-10-10T09:18:24.158Z,92.38
2023-10-10T09:20:52.109Z,91.47
2023-10-10T09:23:26.884Z,91.90
2023-10-10T09:26:25.307Z,93.00
2023-10-10T09:29:04.456Z,92.86
2023-10-10T09:31:34.349Z,93.00
2023-10-10T09:34:05.007Z,90.84
2023-10-10T09:36:39.389Z,88.30
2023-10-10T09:39:11.052Z,85.96
2023-10-10T09:41:58.345Z,85.63
2023-10-10T09:44:52.751Z,85.65
2023-10-10T09:47:41.663Z,87.52
2023-10-10T09:50:24.187Z,86.74
2023-10-10T09:52:55.348Z,85.87
2023-10-10T09:55:25.822Z,85.96
2023-10-10T09:58:09.015Z,85.93
2023-10-10T10:00:43.478Z,85.18
2023-10-10T10:03:28.002Z,85.31
2023-10-10T10:06:22.684Z,84.78
2023-10-10T10:09:10.528Z,84.51
2023-10-10T10:11:53.560Z,84.53
2023-10-10T10:14:29.740Z,84.71
2023-10-10T10:17:19.854Z,85.51
2023-10-10T10:19:49.112Z,85.30
2023-10-10T10:22:22.575Z,85.50
2023-10-10T10:24:49.501Z,85.94
2023-10-10T10:27:25.935Z,85.58
2023-10-10T10:30:20.150Z,85.61
2023-10-10T10:32:48.284Z,83.26
2023-10-10T10:35:47.774Z,82.62
2023-10-10T10:38:18.364Z,82.50
2023-10-10T10:40:49.703Z,80.09
2023-10-10T10:43:22.947Z,79.71
2023-10-10T10:45:54.396Z,79.56
2023-10-10T10:48:31.157Z,75.05
2023-10-10T10:51:03.202Z,74.76
2023-10-10T10:53:39.650Z,73.42
2023-10-10T10:56:18.827Z,71.27
2023-10-10T10:58:55.080Z,71.55
2023-10-10T11:01:27.974Z,69.98
2023-10-10T11:03:56.514Z,69.97
2023-10-10T11:06:30.034Z,66.48
2023-10-10T11:09:10.776Z,66.42
2023-10-10T11:11:41.929Z,66.65
2023-10-10T11:14:19.887Z,64.10
2023-10-10T11:16:47.745Z,64.05
2023-10-10T11:19:20.117Z,62.45
2023-10-10T11:21:50.183Z,62.09
2023-10-10T11:24:27.651Z,61.17
2023-10-10T11:27:12.515Z,59.49
2023-10-10T11:29:46.511Z,57.17
2023-10-10T11:32:37.547Z,54.15
2023-10-10T11:35:17.080Z,54.89
2023-10-10T11:38:00.980Z,52.71
2023-10-10T11:40:32.342Z,52.12
2023-10-10T11:43:07.492Z,51.04
2023-10-10T11:45:42.951Z,50.19
2023-10-10T11:48:17.359Z,47.92
2023-10-10T11:50:58.260Z,47.59
2023-10-10T11:53:26.721Z,46.46
2023-10-10T11:56:02.683Z,45.02
2023-10-10T11:58:38.612Z,45.09
2023-10-10T12:01:09.541Z,44.09
2023-10-10T12:03:39.822Z,42.44
2023-10-10T12:06:09.344Z,41.52
2023-10-10T12:08:38.450Z,42.33
2023-10-10T12:11:13.536Z,42.69
2023-10-10T12:13:40.500Z,41.58
2023-10-10T12:16:14.011Z,39.83
2023-10-10T12:18:45.687Z,39.63
2023-10-10T12:21:20.475Z,39.39
2023-10-10T12:23:55.225Z,38.10
2023-10-10T12:26:24.710Z,37.01
2023-10-10T12:28:53.788Z,36.32
2023-10-10T12:31:23.032Z,35.90
2023-10-10T12:33:50.759Z,36.33
2023-10-10T12:36:18.112Z,35.84
2023-10-10T12:38:46.207Z,34.94
2023-10-10T12:41:13.208Z,34.61
2023-10-10T12:43:41.301Z,34.18
2023-10-10T12:46:08.864Z,34.28
2023-10-10T12:48:41.440Z,33.78
2023-10-10T12:51:11.807Z,32.92
2023-10-10T12:53:44.372Z,33.64
2023-10-10T12:56:18.741Z,33.85
2023-10-10T12:58:53.244Z,32.01
2023-10-10T13:01:24.663Z,31.78
2023-10-10T13:03:52.385Z,32.64
2023-10-10T13:06:23.698Z,32.63
2023-10-10T13:09:04.546Z,32.57
2023-10-10T13:11:34.128Z,31.92
2023-10-10T13:14:10.401Z,32.09
2023-10-10T13:16:44.071Z,31.70
2023-10-10T13:19:13.034Z,32.47
2023-10-10T13:21:41.759Z,32.85
2023-10-10T13:24:13.300Z,32.58
2023-10-10T13:26:41.367Z,32.69
2023-10-10T13:29:09.009Z,32.68
2023-10-10T13:31:36.453Z,32.15
2023-10-10T13:34:04.294Z,31.65
2023-10-10T13:36:33.538Z,31.94
2023-10-10T13:39:06.591Z,31.59
2023-10-10T13:41:37.297Z,31.30
2023-10-10T13:44:05.213Z,30.73
2023-10-10T13:46:37.045Z,30.60
2023-10-10T13:49:10.464Z,30.10
2023-10-10T13:51:43.122Z,30.70
2023-10-10T13:54:09.928Z,30.26
2023-10-10T13:56:36.712Z,29.96
2023-10-10T13:59:03.845Z,29.43
2023-10-10T14:01:30.819Z,29.50
2023-10-10T14:04:15.057Z,29.55
2023-10-10T14:06:49.252Z,29.35
2023-10-10T14:09:23.458Z,29.14
2023-10-10T14:11:58.550Z,29.56
2023-10-10T14:14:25.474Z,29.81
2023-10-10T14:16:56.367Z,29.78
2023-10-10T14:19:26.101Z,29.40
2023-10-10T14:21:54.610Z,28.82
2023-10-10T14:24:22.037Z,28.87
2023-10-10T14:26:50.143Z,29.90
2023-10-10T14:29:17.691Z,29.44
2023-10-10T14:31:46.281Z,29.55
2023-10-10T14:34:31.735Z,30.42
2023-10-10T14:36:58.513Z,30.92
2023-10-10T14:39:37.545Z,31.00
2023-10-10T14:42:04.957Z,29.98
2023-10-10T14:44:32.943Z,29.31
2023-10-10T14:47:04.188Z,28.78
2023-10-10T14:49:31.146Z,29.30
2023-10-10T14:52:04.681Z,29.23
2023-10-10T14:54:38.630Z,29.79
2023-10-10T14:57:06.234Z,29.22
2023-10-10T14:59:33.150Z,28.76
2023-10-10T15:02:05.300Z,28.83
2023-10-10T15:04:34.699Z,29.88
2023-10-10T15:07:01.844Z,30.42
2023-10-10T15:09:28.687Z,31.50
2023-10-10T15:12:08.318Z,32.50
2023-10-10T15:14:35.119Z,32.50
2023-10-10T15:17:06.242Z,33.07
2023-10-10T15:19:33.605Z,33.06
2023-10-10T15:22:00.733Z,33.15
2023-10-10T15:24:29.827Z,32.84
2023-10-10T15:26:57.352Z,32.60
2023-10-10T15:29:24.335Z,33.21
2023-10-10T15:31:55.569Z,33.70
2023-10-10T15:34:22.423Z,34.07
2023-10-10T15:36:49.924Z,34.55
2023-10-10T15:39:16.952Z,35.04
2023-10-10T15:41:45.729Z,35.25
2023-10-10T15:44:13.965Z,35.92
2023-10-10T15:46:44.711Z,34.96
2023-10-10T15:49:29.110Z,35.72
2023-10-10T15:52:05.931Z,36.15
2023-10-10T15:54:35.737Z,36.52
2023-10-10T15:57:08.570Z,37.85
2023-10-10T15:59:36.937Z,39.21
2023-10-10T16:02:09.563Z,39.71
2023-10-10T16:04:37.686Z,41.43
2023-10-10T16:07:06.095Z,42.26
2023-10-10T16:09:32.860Z,43.70
2023-10-10T16:11:59.835Z,44.68
2023-10-10T16:14:26.925Z,45.57
2023-10-10T16:16:54.202Z,46.23
2023-10-10T16:19:26.834Z,45.88
2023-10-10T16:21:56.099Z,44.86
2023-10-10T16:24:28.700Z,44.41
2023-10-10T16:27:03.715Z,46.44
2023-10-10T16:29:36.805Z,48.79
2023-10-10T16:32:09.532Z,48.32
2023-10-10T16:34:43.492Z,47.91
2023-10-10T16:37:14.813Z,47.25
2023-10-10T16:39:45.811Z,47.67
2023-10-10T16:42:13.695Z,47.20
2023-10-10T16:44:40.561Z,47.46
2023-10-10T16:47:07.365Z,47.70
2023-10-10T16:49:38.314Z,48.61
2023-10-10T16:52:07.153Z,49.55
2023-10-10T16:54:34.854Z,49.32
2023-10-10T16:57:01.816Z,48.92
2023-10-10T16:59:31.551Z,49.19
2023-10-10T17:01:58.419Z,48.95
2023-10-10T17:04:26.004Z,48.48
2023-10-10T17:06:52.797Z,49.06
2023-10-10T17:09:19.501Z,49.28
2023-10-10T17:11:51.661Z,49.80
2023-10-10T17:14:22.216Z,50.78
2023-10-10T17:16:49.213Z,51.59
2023-10-10T17:19:19.765Z,53.18
2023-10-10T17:21:49.482Z,53.51
2023-10-10T17:24:22.602Z,53.89
2023-10-10T17:26:49.460Z,53.94
2023-10-10T17:29:16.682Z,55.05
2023-10-10T17:31:43.837Z,55.23
2023-10-10T17:34:16.448Z,55.31
2023-10-10T17:36:43.614Z,55.23
2023-10-10T17:39:10.624Z,55.54
2023-10-10T17:41:37.411Z,56.02
2023-10-10T17:44:10.087Z,56.48
2023-10-10T17:46:39.024Z,56.73
2023-10-10T17:49:06.705Z,57.61
2023-10-10T17:51:35.236Z,57.74
2023-10-10T17:54:02.541Z,58.06
2023-10-10T17:56:29.708Z,59.02
2023-10-10T17:58:56.576Z,59.47
2023-10-10T18:01:23.708Z,59.84
2023-10-10T18:03:55.427Z,60.13
2023-10-10T18:06:24.530Z,60.95
2023-10-10T18:09:01.865Z,61.71
2023-10-10T18:11:33.240Z,62.06
2023-10-10T18:14:00.187Z,62.32
2023-10-10T18:16:26.926Z,62.54
2023-10-10T18:18:54.049Z,63.07
2023-10-10T18:21:24.004Z,63.64
2023-10-10T18:23:50.808Z,63.73
2023-10-10T18:26:21.746Z,64.26
2023-10-10T18:28:51.269Z,64.65
2023-10-10T18:31:40.458Z,65.18
2023-10-10T18:34:07.882Z,65.84
2023-10-10T18:36:37.905Z,66.88
2023-10-10T18:39:12.923Z,67.25
2023-10-10T18:41:43.901Z,67.62
2023-10-10T18:44:11.951Z,68.24
2023-10-10T18:46:38.689Z,68.49
2023-10-10T18:49:06.836Z,69.02
2023-10-10T18:51:33.865Z,69.53
2023-10-10T18:54:00.865Z,70.20
2023-10-10T18:56:27.660Z,70.96
2023-10-10T18:58:54.431Z,71.11
2023-10-10T19:01:23.175Z,71.65
2023-10-10T19:03:50.552Z,71.83
2023-10-10T19:06:21.516Z,72.15
2023-10-10T19:08:49.436Z,72.47
2023-10-10T19:11:24.548Z,72.83
2023-10-10T19:13:51.520Z,73.38
2023-10-10T19:16:18.900Z,73.62
2023-10-10T19:18:46.479Z,74.18
2023-10-10T19:21:17.990Z,74.56
2023-10-10T19:23:50.565Z,74.98
2023-10-10T19:26:18.215Z,75.28
2023-10-10T19:28:46.659Z,75.23
2023-10-10T19:31:15.677Z,75.44
2023-10-10T19:33:42.854Z,75.73
2023-10-10T19:36:09.875Z,75.91
2023-10-10T19:38:36.768Z,76.39
2023-10-10T19:41:10.272Z,76.57
2023-10-10T19:43:38.221Z,77.02
2023-10-10T19:46:11.485Z,77.07
2023-10-10T19:48:41.997Z,77.32
2023-10-10T19:51:20.157Z,78.06
2023-10-10T19:53:50.575Z,78.17
2023-10-10T19:56:18.208Z,78.41
2023-10-10T19:58:47.083Z,78.92
2023-10-10T20:01:14.555Z,79.47
2023-10-10T20:03:43.505Z,79.58
2023-10-10T20:06:21.400Z,80.51
2023-10-10T20:08:55.249Z,80.90
2023-10-10T20:11:25.307Z,81.50
2023-10-10T20:13:52.820Z,82.26
2023-10-10T20:16:21.770Z,82.57
2023-10-10T20:18:48.895Z,83.01
2023-10-10T20:21:17.424Z,83.28
2023-10-10T20:23:44.939Z,84.30
2023-10-10T20:26:18.431Z,84.47
2023-10-10T20:28:47.771Z,85.18
2023-10-10T20:31:14.913Z,86.09
2023-10-10T20:33:42.525Z,86.94
2023-10-10T20:36:11.432Z,87.06
2023-10-10T20:38:43.782Z,87.41
2023-10-10T20:41:12.396Z,88.12
2023-10-10T20:43:41.020Z,88.52
2023-10-10T20:46:07.943Z,89.15
2023-10-10T20:48:35.000Z,89.29
2023-10-10T20:51:05.335Z,89.65
2023-10-10T20:53:32.623Z,90.00
2023-10-10T20:55:59.633Z,90.31
2023-10-10T20:58:26.409Z,90.70
2023-10-10T21:00:53.227Z,90.55
2023-10-10T21:03:20.228Z,90.95
2023-10-10T21:05:48.725Z,91.80
2023-10-10T21:08:18.578Z,92.09
2023-10-10T21:10:45.777Z,92.22
2023-10-10T21:13:14.285Z,92.18
2023-10-10T21:15:42.323Z,92.22
2023-10-10T21:18:09.813Z,91.25
2023-10-10T21:20:51.934Z,91.15
2023-10-10T21:23:26.362Z,90.90
2023-10-10T21:25:54.398Z,90.44
2023-10-10T21:28:23.301Z,90.90
2023-10-10T21:30:50.097Z,90.19
2023-10-10T21:33:17.031Z,90.41
2023-10-10T21:35:45.535Z,90.23
2023-10-10T21:38:12.535Z,90.10
2023-10-10T21:40:41.255Z,90.51
2023-10-10T21:43:09.372Z,90.35
2023-10-10T21:45:38.068Z,90.16
2023-10-10T21:48:06.098Z,89.89
2023-10-10T21:50:33.458Z,89.39
2023-10-10T21:53:01.330Z,89.00
2023-10-10T21:55:29.217Z,89.06
2023-10-10T21:57:56.914Z,87.45
2023-10-10T22:00:30.946Z,86.86
2023-10-10T22:02:58.807Z,86.46
2023-10-10T22:05:25.545Z,85.99
2023-10-10T22:07:52.270Z,85.76
2023-10-10T22:10:24.124Z,85.25
2023-10-10T22:12:55.778Z,85.04
2023-10-10T22:15:26.243Z,85.11
2023-10-10T22:17:56.007Z,85.46
2023-10-10T22:20:24.244Z,85.52
2023-10-10T22:22:51.987Z,85.74
2023-10-10T22:25:22.995Z,85.66
2023-10-10T22:27:52.529Z,85.05
2023-10-10T22:30:26.369Z,84.98
2023-10-10T22:32:55.261Z,84.36
2023-10-10T22:35:23.135Z,84.10
2023-10-10T22:37:51.350Z,84.53
2023-10-10T22:40:18.726Z,84.58
2023-10-10T22:42:45.569Z,83.67
2023-10-10T22:45:12.465Z,83.14
2023-10-10T22:47:39.626Z,83.04
2023-10-10T22:50:08.522Z,83.42
2023-10-10T22:52:38.990Z,83.40
2023-10-10T22:55:11.237Z,83.18
2023-10-10T22:57:38.227Z,83.38
2023-10-10T23:00:13.061Z,82.94
2023-10-10T23:02:45.583Z,83.05
2023-10-10T23:05:15.267Z,82.73
2023-10-10T23:07:43.095Z,82.09
2023-10-10T23:10:21.608Z,82.32
2023-10-10T23:12:52.688Z,81.16
2023-10-10T23:15:27.537Z,81.32
2023-10-10T23:17:59.250Z,80.97
2023-10-10T23:20:28.868Z,81.17
2023-10-10T23:22:57.757Z,81.44
2023-10-10T23:25:27.019Z,81.91
2023-10-10T23:27:57.938Z,81.77
2023-10-10T23:30:31.209Z,81.23
2023-10-10T23:33:00.277Z,80.92
2023-10-10T23:35:28.586Z,80.93
2023-10-10T23:37:56.203Z,80.87
2023-10-10T23:40:23.706Z,80.20
2023-10-10T23:42:52.422Z,79.45
2023-10-10T23:45:24.008Z,77.83
2023-10-10T23:47:58.108Z,78.10
2023-10-10T23:50:27.771Z,77.57
2023-10-10T23:52:56.797Z,77.53
2023-10-10T23:55:30.307Z,76.29
2023-10-10T23:58:01.433Z,75.99
